Time;durP1;ratioP1;P1;durP2;ratioP2;P2;SDS_P1;SDS_P2;PMS_P1;PMS_P2;Temp;Humidity;BMP_temperature;BMP_pressure;BME280_temperature;BME280_humidity;BME280_pressure;Samples;Min_cycle;Max_cycle;Signal;HPM_P1;HPM_P2
2022/08/04 00:00:27;;;;;;;32.55;19.00;;;;;;;;;;5062957;28;20423;-83
2022/08/04 00:03:02;;;;;;;29.55;19.73;;;;;;;;;;5065403;28;20418;-82
2022/08/04 00:05:35;;;;;;;25.52;18.30;;;;;;;;;;5062132;28;20566;-83
2022/08/04 00:08:06;;;;;;;28.75;18.13;;;;;;;;;;5063229;28;20429;-81
2022/08/04 00:10:34;;;;;;;32.57;19.43;;;;;;;;;;5062849;28;20419;-82
2022/08/04 00:13:02;;;;;;;35.22;20.02;;;;;;;;;;5062272;28;20989;-84
2022/08/04 00:15:29;;;;;;;30.13;20.65;;;;;;;;;;5062443;28;20427;-81
2022/08/04 00:17:59;;;;;;;29.15;20.17;;;;;;;;;;5062598;28;20807;-83
2022/08/04 00:20:29;;;;;;;33.53;19.83;;;;;;;;;;5060080;28;20423;-81
2022/08/04 00:22:57;;;;;;;33.15;20.48;;;;;;;;;;5063235;28;20427;-81
2022/08/04 00:25:24;;;;;;;30.58;20.88;;;;;;;;;;5062662;28;20421;-82
2022/08/04 00:27:52;;;;;;;30.67;20.00;;;;;;;;;;5061005;28;20425;-83
2022/08/04 00:30:18;;;;;;;29.00;19.67;;;;;;;;;;5060598;28;20434;-84
2022/08/04 00:32:45;;;;;;;27.85;19.20;;;;;;;;;;5063381;28;20424;-81
2022/08/04 00:35:13;;;;;;;28.52;19.85;;;;;;;;;;5063799;28;21031;-81
2022/08/04 00:37:43;;;;;;;29.35;19.15;;;;;;;;;;5063580;28;20431;-82
2022/08/04 00:40:22;;;;;;;30.33;19.98;;;;;;;;;;5062612;28;20423;-84
2022/08/04 00:42:51;;;;;;;30.80;20.00;;;;;;;;;;5062158;28;20433;-84
2022/08/04 00:45:32;;;;;;;27.15;18.23;;;;;;;;;;5063280;28;20431;-84
2022/08/04 00:48:04;;;;;;;32.67;20.00;;;;;;;;;;5062245;28;20426;-84
2022/08/04 00:50:34;;;;;;;32.97;19.00;;;;;;;;;;5060209;28;20456;-81
2022/08/04 00:53:06;;;;;;;31.02;21.58;;;;;;;;;;5060606;28;20799;-84
2022/08/04 00:55:56;;;;;;;28.20;20.63;;;;;;;;;;5065318;28;20433;-83
2022/08/04 00:58:25;;;;;;;27.85;18.30;;;;;;;;;;5045667;28;20431;-80
2022/08/04 01:00:57;;;;;;;31.77;20.55;;;;;;;;;;5062340;28;20427;-82
2022/08/04 01:03:24;;;;;;;30.15;21.20;;;;;;;;;;5046519;28;20433;-82
2022/08/04 01:05:56;;;;;;;30.50;20.38;;;;;;;;;;5042749;28;20425;-82
2022/08/04 01:08:38;;;;;;;32.13;20.55;;;;;;;;;;5041170;28;20434;-82
2022/08/04 01:11:09;;;;;;;34.78;21.55;;;;;;;;;;5042161;28;20468;-81
2022/08/04 01:13:45;;;;;;;29.30;19.88;;;;;;;;;;5041667;28;20436;-80
2022/08/04 01:16:16;;;;;;;32.13;22.60;;;;;;;;;;5042165;28;20428;-84
2022/08/04 01:18:46;;;;;;;34.53;21.38;;;;;;;;;;5039368;28;20800;-86
2022/08/04 01:21:27;;;;;;;33.28;22.85;;;;;;;;;;5043632;28;20429;-81
2022/08/04 01:24:05;;;;;;;33.40;21.67;;;;;;;;;;5028143;28;20446;-83
2022/08/04 01:26:52;;;;;;;32.97;21.40;;;;;;;;;;5042263;28;20421;-82
2022/08/04 01:29:22;;;;;;;30.43;21.20;;;;;;;;;;5040758;28;20428;-82
2022/08/04 01:32:03;;;;;;;30.90;22.45;;;;;;;;;;5041768;28;20435;-81
2022/08/04 01:34:30;;;;;;;28.83;21.38;;;;;;;;;;5042574;28;20443;-82
2022/08/04 01:36:59;;;;;;;32.65;21.90;;;;;;;;;;5040398;28;20461;-82
2022/08/04 01:39:42;;;;;;;33.38;22.23;;;;;;;;;;5040628;28;20486;-82
2022/08/04 01:42:11;;;;;;;33.38;23.90;;;;;;;;;;5040564;28;20423;-81
2022/08/04 01:44:40;;;;;;;33.58;22.50;;;;;;;;;;5042711;28;20516;-84
2022/08/04 01:47:07;;;;;;;35.50;23.38;;;;;;;;;;5040664;28;20423;-86
2022/08/04 01:49:33;;;;;;;29.95;22.10;;;;;;;;;;5040682;28;20448;-83
2022/08/04 01:52:00;;;;;;;35.58;23.73;;;;;;;;;;5040188;28;20411;-81
2022/08/04 01:54:27;;;;;;;33.38;22.05;;;;;;;;;;5041724;28;20440;-83
2022/08/04 01:56:53;;;;;;;35.30;22.52;;;;;;;;;;5039674;28;20407;-82
2022/08/04 01:59:21;;;;;;;31.10;21.92;;;;;;;;;;5041206;28;20430;-83
2022/08/04 02:01:49;;;;;;;30.63;23.20;;;;;;;;;;5056037;28;20421;-82
2022/08/04 02:04:15;;;;;;;32.15;23.20;;;;;;;;;;5043050;28;20532;-82
2022/08/04 02:06:47;;;;;;;32.13;22.77;;;;;;;;;;5044813;28;20429;-83
2022/08/04 02:09:16;;;;;;;29.83;22.55;;;;;;;;;;5043408;28;20442;-83
2022/08/04 02:11:46;;;;;;;33.20;23.13;;;;;;;;;;5043865;28;20444;-84
2022/08/04 02:14:39;;;;;;;33.80;23.77;;;;;;;;;;5043319;28;20439;-81
2022/08/04 02:17:10;;;;;;;34.90;23.70;;;;;;;;;;5042584;28;20417;-83
2022/08/04 02:19:43;;;;;;;38.17;22.95;;;;;;;;;;5043377;28;20978;-81
2022/08/04 02:22:15;;;;;;;33.10;22.83;;;;;;;;;;5041728;28;20478;-83
2022/08/04 02:24:46;;;;;;;31.45;21.80;;;;;;;;;;5046831;28;20506;-83
2022/08/04 02:27:13;;;;;;;33.60;22.47;;;;;;;;;;5046857;28;20474;-82
2022/08/04 02:29:44;;;;;;;32.22;22.17;;;;;;;;;;5043460;28;20436;-83
2022/08/04 02:32:15;;;;;;;33.92;22.45;;;;;;;;;;5044516;28;20800;-82
2022/08/04 02:34:43;;;;;;;37.15;23.15;;;;;;;;;;5043678;28;20687;-82
2022/08/04 02:37:11;;;;;;;32.10;21.63;;;;;;;;;;5047034;28;20433;-84
2022/08/04 02:39:38;;;;;;;33.97;21.83;;;;;;;;;;5042997;28;20475;-81
2022/08/04 02:42:09;;;;;;;29.57;21.40;;;;;;;;;;5043921;28;20432;-84
2022/08/04 02:44:36;;;;;;;32.63;20.83;;;;;;;;;;5041711;28;20442;-83
2022/08/04 02:47:04;;;;;;;35.60;20.55;;;;;;;;;;5043880;28;20778;-84
2022/08/04 02:49:35;;;;;;;30.73;20.85;;;;;;;;;;5042106;28;20433;-83
2022/08/04 02:52:03;;;;;;;25.00;19.53;;;;;;;;;;5043680;28;20430;-81
2022/08/04 02:54:34;;;;;;;28.45;20.30;;;;;;;;;;5044877;28;20520;-82
2022/08/04 02:57:00;;;;;;;26.42;19.27;;;;;;;;;;5042646;28;20426;-84
2022/08/04 02:59:27;;;;;;;28.65;20.65;;;;;;;;;;5041975;28;20797;-83
2022/08/04 03:01:55;;;;;;;26.92;19.60;;;;;;;;;;5043187;28;20413;-82
2022/08/04 03:04:26;;;;;;;29.05;20.45;;;;;;;;;;5044963;28;20439;-83
2022/08/04 03:07:13;;;;;;;27.05;19.63;;;;;;;;;;5043176;28;20994;-85
2022/08/04 03:10:05;;;;;;;29.60;18.40;;;;;;;;;;5043788;28;20445;-83
2022/08/04 03:13:02;;;;;;;25.35;17.67;;;;;;;;;;5042953;28;20421;-83
2022/08/04 03:15:44;;;;;;;24.27;18.43;;;;;;;;;;5000513;28;20434;-86
2022/08/04 03:18:34;;;;;;;27.10;16.92;;;;;;;;;;5035330;28;20924;-84
2022/08/04 03:21:12;;;;;;;26.85;18.55;;;;;;;;;;5043705;28;20439;-84
2022/08/04 03:24:07;;;;;;;28.77;18.45;;;;;;;;;;5041065;28;20436;-84
2022/08/04 03:26:58;;;;;;;26.13;17.77;;;;;;;;;;5042539;28;20923;-81
2022/08/04 03:29:43;;;;;;;20.50;16.53;;;;;;;;;;5044209;28;20433;-82
2022/08/04 03:32:25;;;;;;;22.67;15.30;;;;;;;;;;5036211;28;20430;-84
2022/08/04 03:35:06;;;;;;;23.20;15.90;;;;;;;;;;5043426;28;20445;-82
2022/08/04 03:37:51;;;;;;;25.98;16.83;;;;;;;;;;5039489;28;20417;-83
2022/08/04 03:40:28;;;;;;;23.40;16.30;;;;;;;;;;5042184;28;20444;-84
2022/08/04 03:43:06;;;;;;;21.98;16.35;;;;;;;;;;5044783;28;20787;-83
2022/08/04 03:45:53;;;;;;;21.70;15.03;;;;;;;;;;5041368;28;20433;-85
2022/08/04 03:48:37;;;;;;;20.88;14.07;;;;;;;;;;5038670;28;20434;-82
2022/08/04 03:54:10;;;;;;;21.13;15.20;;;;;;;;;;5043102;28;24433;-82
2022/08/04 03:56:58;;;;;;;20.85;14.90;;;;;;;;;;5042782;28;20442;-84
2022/08/04 03:59:33;;;;;;;21.13;15.23;;;;;;;;;;5058665;28;20962;-84
2022/08/04 04:02:15;;;;;;;22.13;14.65;;;;;;;;;;5047501;28;20422;-84
2022/08/04 04:04:58;;;;;;;20.90;13.40;;;;;;;;;;5063047;28;20425;-82
2022/08/04 04:07:38;;;;;;;20.05;14.10;;;;;;;;;;5062868;28;20425;-83
2022/08/04 04:10:11;;;;;;;19.65;15.40;;;;;;;;;;5063557;28;20793;-82
2022/08/04 04:12:52;;;;;;;17.70;13.77;;;;;;;;;;5062800;28;20425;-85
2022/08/04 04:15:36;;;;;;;22.38;14.27;;;;;;;;;;5061231;28;20885;-83
2022/08/04 04:18:18;;;;;;;18.48;13.88;;;;;;;;;;5063786;28;20427;-83
2022/08/04 04:20:53;;;;;;;20.75;14.25;;;;;;;;;;5063351;28;20415;-82
2022/08/04 04:23:28;;;;;;;21.58;13.65;;;;;;;;;;5058996;28;20417;-83
2022/08/04 04:26:06;;;;;;;21.00;14.50;;;;;;;;;;5063590;28;20536;-83
2022/08/04 04:28:41;;;;;;;20.67;14.40;;;;;;;;;;5062361;28;20428;-84
2022/08/04 04:31:17;;;;;;;21.45;14.10;;;;;;;;;;5063062;28;20435;-83
2022/08/04 04:34:06;;;;;;;18.80;13.10;;;;;;;;;;5061620;28;20965;-84
2022/08/04 04:36:36;;;;;;;21.95;13.80;;;;;;;;;;5063995;28;20450;-84
2022/08/04 04:39:10;;;;;;;19.52;13.35;;;;;;;;;;5044958;28;20447;-84
2022/08/04 04:41:47;;;;;;;20.45;13.20;;;;;;;;;;5043275;28;20836;-83
2022/08/04 04:44:19;;;;;;;22.58;12.95;;;;;;;;;;5042432;28;20429;-85
2022/08/04 04:46:48;;;;;;;17.17;12.47;;;;;;;;;;5041203;28;20435;-84
2022/08/04 04:49:25;;;;;;;16.73;12.20;;;;;;;;;;5043310;28;20446;-83
2022/08/04 04:51:55;;;;;;;18.65;11.57;;;;;;;;;;5055970;28;20431;-83
2022/08/04 04:54:28;;;;;;;16.67;12.30;;;;;;;;;;5043550;28;20431;-83
2022/08/04 04:57:01;;;;;;;20.08;12.25;;;;;;;;;;5040858;28;21214;-83
2022/08/04 04:59:31;;;;;;;19.45;12.40;;;;;;;;;;5041959;28;20434;-84
2022/08/04 05:02:12;;;;;;;19.15;12.20;;;;;;;;;;5042837;28;20413;-83
2022/08/04 05:04:54;;;;;;;17.95;11.35;;;;;;;;;;5035301;28;20453;-83
2022/08/04 05:07:35;;;;;;;19.42;10.98;;;;;;;;;;5041526;28;20442;-84
2022/08/04 05:10:06;;;;;;;21.05;11.00;;;;;;;;;;5040636;28;20433;-83
2022/08/04 05:12:57;;;;;;;19.70;11.57;;;;;;;;;;5042647;28;20425;-82
2022/08/04 05:15:25;;;;;;;16.42;10.38;;;;;;;;;;5043690;28;20975;-84
2022/08/04 05:17:53;;;;;;;15.38;10.50;;;;;;;;;;5043282;28;20413;-84
2022/08/04 05:20:24;;;;;;;17.20;12.02;;;;;;;;;;5044049;28;20434;-84
2022/08/04 05:22:54;;;;;;;17.38;11.02;;;;;;;;;;5042106;28;20970;-83
2022/08/04 05:25:21;;;;;;;19.02;11.35;;;;;;;;;;5043845;28;20425;-84
2022/08/04 05:27:50;;;;;;;19.25;11.63;;;;;;;;;;5042550;28;20450;-86
2022/08/04 05:30:18;;;;;;;18.98;11.05;;;;;;;;;;5042491;28;20433;-84
2022/08/04 05:32:46;;;;;;;16.58;11.10;;;;;;;;;;5044000;28;20405;-84
2022/08/04 05:35:15;;;;;;;16.33;11.05;;;;;;;;;;5043164;28;20429;-86
2022/08/04 05:37:43;;;;;;;17.90;11.00;;;;;;;;;;5041037;28;20887;-82
2022/08/04 05:40:11;;;;;;;17.90;11.15;;;;;;;;;;5046848;28;20441;-83
2022/08/04 05:42:38;;;;;;;14.85;10.45;;;;;;;;;;5046785;28;20525;-81
2022/08/04 05:45:07;;;;;;;16.25;11.00;;;;;;;;;;5046401;28;20842;-84
2022/08/04 05:47:34;;;;;;;17.95;10.45;;;;;;;;;;5046364;28;20430;-84
2022/08/04 05:50:01;;;;;;;16.92;10.00;;;;;;;;;;5048346;28;20914;-85
2022/08/04 05:52:28;;;;;;;17.95;10.10;;;;;;;;;;5045880;28;20437;-81
2022/08/04 05:54:58;;;;;;;18.77;10.15;;;;;;;;;;5045443;28;21043;-84
2022/08/04 05:57:25;;;;;;;14.98;10.13;;;;;;;;;;5044874;28;20414;-83
2022/08/04 05:59:52;;;;;;;16.95;9.20;;;;;;;;;;5046339;28;20512;-84
2022/08/04 06:02:19;;;;;;;17.45;9.63;;;;;;;;;;5045832;28;20792;-81
2022/08/04 06:04:48;;;;;;;21.27;10.93;;;;;;;;;;5045053;28;20435;-84
2022/08/04 06:07:14;;;;;;;16.40;9.23;;;;;;;;;;5043680;28;20423;-81
2022/08/04 06:09:42;;;;;;;13.65;9.05;;;;;;;;;;5047108;28;20442;-82
2022/08/04 06:12:11;;;;;;;13.10;7.88;;;;;;;;;;5046474;28;20426;-82
2022/08/04 06:14:39;;;;;;;15.57;8.70;;;;;;;;;;5047312;28;20429;-84
2022/08/04 06:17:06;;;;;;;15.20;8.57;;;;;;;;;;5046238;28;20826;-84
2022/08/04 06:19:34;;;;;;;13.40;8.02;;;;;;;;;;5045431;28;20417;-83
2022/08/04 06:22:03;;;;;;;16.35;8.52;;;;;;;;;;5046951;28;20917;-82
2022/08/04 06:24:30;;;;;;;15.10;7.80;;;;;;;;;;5046657;28;20544;-83
2022/08/04 06:26:59;;;;;;;16.75;8.90;;;;;;;;;;5043598;28;20957;-83
2022/08/04 06:29:33;;;;;;;16.83;7.95;;;;;;;;;;5043747;28;20485;-85
2022/08/04 06:32:01;;;;;;;14.00;8.70;;;;;;;;;;5044608;28;20419;-83
2022/08/04 06:34:29;;;;;;;15.85;7.60;;;;;;;;;;5044567;28;20422;-82
2022/08/04 06:36:57;;;;;;;12.80;7.60;;;;;;;;;;5041315;28;20423;-83
2022/08/04 06:39:25;;;;;;;21.33;8.20;;;;;;;;;;5050100;28;20425;-83
2022/08/04 06:41:52;;;;;;;12.13;6.63;;;;;;;;;;5047208;28;20823;-84
2022/08/04 06:44:19;;;;;;;13.45;7.03;;;;;;;;;;5047757;28;20437;-82
2022/08/04 06:46:48;;;;;;;13.80;7.40;;;;;;;;;;5046034;28;20431;-83
2022/08/04 06:49:14;;;;;;;12.57;7.47;;;;;;;;;;5046923;28;20427;-84
2022/08/04 06:51:41;;;;;;;14.88;7.88;;;;;;;;;;5054397;28;20429;-83
2022/08/04 06:54:07;;;;;;;16.83;7.78;;;;;;;;;;5068039;28;20419;-83
2022/08/04 06:56:34;;;;;;;18.45;8.55;;;;;;;;;;5061592;28;20803;-82
2022/08/04 06:59:01;;;;;;;16.90;7.60;;;;;;;;;;5046512;28;20441;-83
2022/08/04 07:01:29;;;;;;;17.58;8.68;;;;;;;;;;5047541;28;20440;-82
2022/08/04 07:03:57;;;;;;;18.38;8.75;;;;;;;;;;5046430;28;21210;-83
2022/08/04 07:06:24;;;;;;;23.90;9.52;;;;;;;;;;5046269;28;20420;-84
2022/08/04 07:08:52;;;;;;;24.52;9.80;;;;;;;;;;5046630;28;20841;-83
2022/08/04 07:11:19;;;;;;;23.00;9.43;;;;;;;;;;5047685;28;20418;-82
2022/08/04 07:13:46;;;;;;;18.85;8.93;;;;;;;;;;5045496;28;20437;-84
2022/08/04 07:16:14;;;;;;;19.60;9.17;;;;;;;;;;5047495;28;20770;-81
2022/08/04 07:18:43;;;;;;;24.45;9.20;;;;;;;;;;5047846;28;20428;-81
2022/08/04 07:21:11;;;;;;;21.13;8.73;;;;;;;;;;5047476;28;20423;-84
2022/08/04 07:23:37;;;;;;;19.95;9.13;;;;;;;;;;5048327;28;20444;-84
2022/08/04 07:26:04;;;;;;;17.65;9.02;;;;;;;;;;5047338;28;20736;-81
2022/08/04 07:28:30;;;;;;;19.45;8.50;;;;;;;;;;5046829;28;20431;-83
2022/08/04 07:30:57;;;;;;;17.45;8.77;;;;;;;;;;5046849;28;20503;-81
2022/08/04 07:33:26;;;;;;;16.13;8.60;;;;;;;;;;5046978;28;20421;-83
2022/08/04 07:35:55;;;;;;;17.90;8.80;;;;;;;;;;5047248;28;20438;-84
2022/08/04 07:38:23;;;;;;;19.67;8.38;;;;;;;;;;5044750;28;20458;-84
2022/08/04 07:40:52;;;;;;;13.82;8.23;;;;;;;;;;5043981;28;20433;-82
2022/08/04 07:43:19;;;;;;;28.85;10.82;;;;;;;;;;5047636;28;20805;-80
2022/08/04 07:45:47;;;;;;;16.30;7.67;;;;;;;;;;5045722;28;20937;-82
2022/08/04 07:48:14;;;;;;;17.52;7.22;;;;;;;;;;5034144;28;20414;-81
2022/08/04 07:50:42;;;;;;;14.23;6.95;;;;;;;;;;5043111;28;20792;-83
2022/08/04 07:53:09;;;;;;;23.63;7.95;;;;;;;;;;5063704;28;20413;-83
2022/08/04 07:55:37;;;;;;;19.35;7.05;;;;;;;;;;5066294;28;20420;-83
2022/08/04 07:58:04;;;;;;;16.05;7.00;;;;;;;;;;5045191;28;20434;-84
2022/08/04 08:00:30;;;;;;;17.10;7.37;;;;;;;;;;5045740;28;20440;-83
2022/08/04 08:02:57;;;;;;;21.37;7.30;;;;;;;;;;5045001;28;20425;-84
2022/08/04 08:05:24;;;;;;;16.73;7.30;;;;;;;;;;5046522;28;20426;-81
2022/08/04 08:07:51;;;;;;;19.35;8.10;;;;;;;;;;5046507;28;20425;-81
2022/08/04 08:10:17;;;;;;;17.80;7.27;;;;;;;;;;5044578;28;20929;-82
2022/08/04 08:12:45;;;;;;;14.77;6.60;;;;;;;;;;5025609;28;20491;-80
2022/08/04 08:15:12;;;;;;;18.73;6.43;;;;;;;;;;5044460;28;20504;-83
2022/08/04 08:17:39;;;;;;;15.63;5.90;;;;;;;;;;5042907;28;21207;-81
2022/08/04 08:20:07;;;;;;;22.90;6.90;;;;;;;;;;5043582;28;20419;-82
2022/08/04 08:22:33;;;;;;;18.75;6.10;;;;;;;;;;5042756;28;20499;-82
2022/08/04 08:25:00;;;;;;;11.73;5.90;;;;;;;;;;5045347;28;20959;-83
2022/08/04 08:27:26;;;;;;;13.48;5.85;;;;;;;;;;5045378;28;20427;-81
2022/08/04 08:29:54;;;;;;;17.10;6.50;;;;;;;;;;5046361;28;20421;-83
2022/08/04 08:32:21;;;;;;;15.35;6.20;;;;;;;;;;5058759;28;20416;-83
2022/08/04 08:34:47;;;;;;;13.98;5.63;;;;;;;;;;5067169;28;20411;-84
2022/08/04 08:37:16;;;;;;;19.10;5.90;;;;;;;;;;5063697;28;20426;-82
2022/08/04 08:39:46;;;;;;;14.35;5.68;;;;;;;;;;5065703;28;20914;-83
2022/08/04 08:42:23;;;;;;;15.10;5.60;;;;;;;;;;5065085;28;20433;-83
2022/08/04 08:45:13;;;;;;;12.88;5.50;;;;;;;;;;5061185;28;20430;-84
2022/08/04 08:47:49;;;;;;;12.70;4.70;;;;;;;;;;5063730;28;20411;-82
2022/08/04 08:50:27;;;;;;;9.18;4.55;;;;;;;;;;5064290;28;20930;-82
2022/08/04 08:53:02;;;;;;;12.05;5.97;;;;;;;;;;5065634;28;20429;-81
2022/08/04 08:55:33;;;;;;;10.70;5.40;;;;;;;;;;5062927;28;20797;-81
2022/08/04 08:58:08;;;;;;;13.90;7.20;;;;;;;;;;5063200;28;20436;-83
2022/08/04 09:00:42;;;;;;;14.38;6.75;;;;;;;;;;5063538;28;20430;-80
2022/08/04 09:03:29;;;;;;;16.67;7.70;;;;;;;;;;5041909;28;20407;-83
2022/08/04 09:06:12;;;;;;;20.75;9.45;;;;;;;;;;5039482;28;20488;-84
2022/08/04 09:08:59;;;;;;;15.82;8.20;;;;;;;;;;5043462;28;20423;-81
2022/08/04 09:11:27;;;;;;;17.35;8.40;;;;;;;;;;5044821;28;20433;-82
2022/08/04 09:13:55;;;;;;;17.97;8.43;;;;;;;;;;5041617;28;20526;-82
2022/08/04 09:16:25;;;;;;;14.35;7.22;;;;;;;;;;5043211;28;20434;-84
2022/08/04 09:18:54;;;;;;;13.15;5.63;;;;;;;;;;5043321;28;20413;-82
2022/08/04 09:21:24;;;;;;;10.70;4.88;;;;;;;;;;5041747;28;20417;-84
2022/08/04 09:23:57;;;;;;;7.53;4.60;;;;;;;;;;5043121;28;20431;-84
2022/08/04 09:26:27;;;;;;;6.88;4.30;;;;;;;;;;5044312;28;20421;-84
2022/08/04 09:28:57;;;;;;;7.40;4.60;;;;;;;;;;5043926;28;20912;-83
2022/08/04 09:31:34;;;;;;;5.35;4.00;;;;;;;;;;5046634;28;20910;-83
2022/08/04 09:34:04;;;;;;;8.07;4.10;;;;;;;;;;5045403;28;20896;-82
2022/08/04 09:36:34;;;;;;;4.90;4.00;;;;;;;;;;5045171;28;20422;-83
2022/08/04 09:39:09;;;;;;;6.03;3.80;;;;;;;;;;5043290;28;20800;-84
2022/08/04 09:41:38;;;;;;;5.87;4.00;;;;;;;;;;5044015;28;20923;-82
2022/08/04 09:44:13;;;;;;;6.35;4.00;;;;;;;;;;5044282;28;20490;-80
2022/08/04 09:46:44;;;;;;;9.27;4.43;;;;;;;;;;5041038;28;20444;-82
2022/08/04 09:49:13;;;;;;;5.40;4.20;;;;;;;;;;5040803;28;20526;-84
2022/08/04 09:51:49;;;;;;;12.73;5.40;;;;;;;;;;5042055;28;20435;-83
2022/08/04 09:54:20;;;;;;;7.55;3.90;;;;;;;;;;5042602;28;20431;-83
2022/08/04 09:56:51;;;;;;;5.72;4.20;;;;;;;;;;5043350;28;20429;-82
2022/08/04 09:59:21;;;;;;;6.70;3.90;;;;;;;;;;5045057;28;20461;-85
2022/08/04 10:01:53;;;;;;;6.70;4.40;;;;;;;;;;5042601;28;20790;-84
2022/08/04 10:04:20;;;;;;;6.95;4.35;;;;;;;;;;5042490;28;20440;-83
2022/08/04 10:06:58;;;;;;;8.18;4.20;;;;;;;;;;5042179;28;20537;-84
2022/08/04 10:09:34;;;;;;;7.43;4.50;;;;;;;;;;5042613;28;20814;-83
2022/08/04 10:12:16;;;;;;;6.18;4.47;;;;;;;;;;5042721;28;20420;-82
2022/08/04 10:14:51;;;;;;;8.30;4.15;;;;;;;;;;5043614;28;20875;-85
2022/08/04 10:17:31;;;;;;;5.68;4.50;;;;;;;;;;5041470;28;20437;-82
2022/08/04 10:20:03;;;;;;;7.65;4.32;;;;;;;;;;5044190;28;20782;-85
2022/08/04 10:22:33;;;;;;;5.50;4.20;;;;;;;;;;5041234;28;20430;-84
2022/08/04 10:25:03;;;;;;;7.95;4.20;;;;;;;;;;5042874;28;20807;-85
2022/08/04 10:27:33;;;;;;;4.93;4.20;;;;;;;;;;5046010;28;20502;-83
2022/08/04 10:30:02;;;;;;;5.47;3.80;;;;;;;;;;5046684;28;20444;-81
2022/08/04 10:32:45;;;;;;;6.43;4.20;;;;;;;;;;5048518;28;20982;-81
2022/08/04 10:35:13;;;;;;;3.90;3.60;;;;;;;;;;5046726;28;20425;-82
2022/08/04 10:37:50;;;;;;;5.30;4.00;;;;;;;;;;5044218;28;20835;-83
2022/08/04 10:40:39;;;;;;;6.28;4.00;;;;;;;;;;5049338;28;20427;-82
2022/08/04 10:43:09;;;;;;;8.38;4.28;;;;;;;;;;5046350;28;20429;-84
2022/08/04 10:45:40;;;;;;;4.83;4.00;;;;;;;;;;5047319;28;20937;-82
2022/08/04 10:48:24;;;;;;;6.07;4.00;;;;;;;;;;5045479;28;20419;-84
2022/08/04 10:51:01;;;;;;;5.13;3.90;;;;;;;;;;5046096;28;21009;-83
2022/08/04 10:53:29;;;;;;;7.07;4.10;;;;;;;;;;5044168;28;20425;-84
2022/08/04 10:55:59;;;;;;;4.50;3.70;;;;;;;;;;5047707;28;20819;-83
2022/08/04 10:58:29;;;;;;;4.93;4.00;;;;;;;;;;5043634;28;20988;-85
2022/08/04 11:00:56;;;;;;;6.00;3.90;;;;;;;;;;5046300;28;20434;-85
2022/08/04 11:03:24;;;;;;;5.05;4.22;;;;;;;;;;5046130;28;20847;-86
2022/08/04 11:05:53;;;;;;;5.65;3.90;;;;;;;;;;5044361;28;20439;-85
2022/08/04 11:08:23;;;;;;;6.15;3.80;;;;;;;;;;5044751;28;20439;-83
2022/08/04 11:10:51;;;;;;;6.15;3.80;;;;;;;;;;5046587;28;20425;-84
2022/08/04 11:13:18;;;;;;;3.78;3.47;;;;;;;;;;5046306;28;20470;-85
2022/08/04 11:15:47;;;;;;;3.67;3.33;;;;;;;;;;5044677;28;20484;-83
2022/08/04 11:18:15;;;;;;;10.07;4.27;;;;;;;;;;5046735;28;20415;-82
2022/08/04 11:20:45;;;;;;;4.40;3.55;;;;;;;;;;5045091;28;20918;-84
2022/08/04 11:23:14;;;;;;;5.22;3.75;;;;;;;;;;5067498;28;20426;-80
2022/08/04 11:25:47;;;;;;;4.70;3.60;;;;;;;;;;5065605;28;20431;-85
2022/08/04 11:28:17;;;;;;;5.63;3.47;;;;;;;;;;5065332;28;20420;-82
2022/08/04 11:30:49;;;;;;;4.00;3.60;;;;;;;;;;5067200;28;20442;-84
2022/08/04 11:33:21;;;;;;;4.00;3.55;;;;;;;;;;5064427;28;20918;-84
2022/08/04 11:35:52;;;;;;;3.80;3.40;;;;;;;;;;5061403;28;20465;-83
2022/08/04 11:38:24;;;;;;;3.83;3.50;;;;;;;;;;5063714;28;20955;-83
2022/08/04 11:40:53;;;;;;;3.63;3.23;;;;;;;;;;5065033;28;20413;-83
2022/08/04 11:43:23;;;;;;;3.63;2.97;;;;;;;;;;5063605;28;20427;-85
2022/08/04 11:45:53;;;;;;;4.70;3.30;;;;;;;;;;5065495;28;20417;-84
2022/08/04 11:48:23;;;;;;;3.92;3.63;;;;;;;;;;5064986;28;20413;-82
2022/08/04 11:50:50;;;;;;;5.43;3.80;;;;;;;;;;5064133;28;20427;-86
2022/08/04 11:53:19;;;;;;;4.32;3.35;;;;;;;;;;5063047;28;20421;-83
2022/08/04 11:55:49;;;;;;;5.60;3.50;;;;;;;;;;5063771;28;20433;-85
2022/08/04 11:58:15;;;;;;;4.47;3.60;;;;;;;;;;5065031;28;20428;-83
2022/08/04 12:00:45;;;;;;;4.10;3.70;;;;;;;;;;5063526;28;20423;-83
2022/08/04 12:03:15;;;;;;;4.22;3.70;;;;;;;;;;5063469;28;20424;-81
2022/08/04 12:05:46;;;;;;;5.00;3.67;;;;;;;;;;5066763;28;20792;-82
2022/08/04 12:08:21;;;;;;;3.92;3.53;;;;;;;;;;5062479;28;20423;-82
2022/08/04 12:10:53;;;;;;;5.00;3.40;;;;;;;;;;5064589;28;20932;-83
2022/08/04 12:13:28;;;;;;;5.50;3.80;;;;;;;;;;5063112;28;20445;-83
2022/08/04 12:15:59;;;;;;;4.30;3.50;;;;;;;;;;5061418;28;20440;-80
2022/08/04 12:18:30;;;;;;;4.63;3.90;;;;;;;;;;5060552;28;20936;-81
2022/08/04 12:20:58;;;;;;;3.85;3.35;;;;;;;;;;5066096;28;20937;-83
2022/08/04 12:23:26;;;;;;;3.90;3.50;;;;;;;;;;5063298;28;20424;-84
2022/08/04 12:25:55;;;;;;;5.87;3.70;;;;;;;;;;5061526;28;20425;-84
2022/08/04 12:28:26;;;;;;;6.00;3.73;;;;;;;;;;5065401;28;20463;-84
2022/08/04 12:30:57;;;;;;;5.05;3.63;;;;;;;;;;5065013;28;20485;-80
2022/08/04 12:33:28;;;;;;;4.22;3.83;;;;;;;;;;5063834;28;20559;-83
2022/08/04 12:35:59;;;;;;;4.15;3.70;;;;;;;;;;5064386;28;20433;-83
2022/08/04 12:38:29;;;;;;;5.10;3.70;;;;;;;;;;5064586;28;20429;-81
2022/08/04 12:41:01;;;;;;;7.43;4.13;;;;;;;;;;5063365;28;20433;-83
2022/08/04 12:43:29;;;;;;;6.43;3.73;;;;;;;;;;5063672;28;20455;-84
2022/08/04 12:45:58;;;;;;;7.00;4.10;;;;;;;;;;5063168;28;20435;-84
2022/08/04 12:48:28;;;;;;;6.05;3.80;;;;;;;;;;5065043;28;21001;-85
2022/08/04 12:50:56;;;;;;;5.47;3.67;;;;;;;;;;5062751;28;20435;-83
2022/08/04 12:53:26;;;;;;;5.00;3.67;;;;;;;;;;5067264;28;20423;-83
2022/08/04 12:55:53;;;;;;;4.00;3.47;;;;;;;;;;5061192;28;20408;-85
2022/08/04 12:58:24;;;;;;;4.57;3.80;;;;;;;;;;5061332;28;20455;-84
2022/08/04 13:00:52;;;;;;;5.18;3.90;;;;;;;;;;5062133;28;20432;-83
2022/08/04 13:03:20;;;;;;;5.70;4.30;;;;;;;;;;5062707;28;20514;-81
2022/08/04 13:05:47;;;;;;;5.70;4.43;;;;;;;;;;5060526;28;20435;-85
2022/08/04 13:08:15;;;;;;;8.45;5.20;;;;;;;;;;5063326;28;20439;-83
2022/08/04 13:10:43;;;;;;;9.45;4.85;;;;;;;;;;5063300;28;20431;-83
2022/08/04 13:13:15;;;;;;;10.15;5.50;;;;;;;;;;5042975;28;20425;-85
2022/08/04 13:15:53;;;;;;;10.50;5.40;;;;;;;;;;5043796;28;20446;-84
2022/08/04 13:18:21;;;;;;;10.73;4.95;;;;;;;;;;5043415;28;20919;-84
2022/08/04 13:20:48;;;;;;;11.90;6.40;;;;;;;;;;5043492;28;20855;-82
2022/08/04 13:23:15;;;;;;;10.40;5.53;;;;;;;;;;5042843;28;20433;-82
2022/08/04 13:25:43;;;;;;;7.90;6.28;;;;;;;;;;5043199;28;20489;-82
2022/08/04 13:28:13;;;;;;;9.83;5.50;;;;;;;;;;5042396;28;20430;-80
2022/08/04 13:30:40;;;;;;;8.90;6.22;;;;;;;;;;5045123;28;20521;-81
2022/08/04 13:33:08;;;;;;;10.68;5.90;;;;;;;;;;5047959;28;20445;-82
2022/08/04 13:35:36;;;;;;;8.07;5.95;;;;;;;;;;5047129;28;20417;-83
2022/08/04 13:38:04;;;;;;;9.35;6.13;;;;;;;;;;5040990;28;20440;-81
2022/08/04 13:40:30;;;;;;;9.88;6.10;;;;;;;;;;5046525;28;20433;-84
2022/08/04 13:42:58;;;;;;;8.75;5.60;;;;;;;;;;5048246;28;20435;-81
2022/08/04 13:45:25;;;;;;;10.77;5.90;;;;;;;;;;5044223;28;20939;-81
2022/08/04 13:47:57;;;;;;;10.55;6.10;;;;;;;;;;5041987;28;20808;-82
2022/08/04 13:50:26;;;;;;;10.57;5.90;;;;;;;;;;5042324;28;20421;-80
2022/08/04 13:52:53;;;;;;;8.38;6.10;;;;;;;;;;5043141;28;20423;-80
2022/08/04 13:55:21;;;;;;;9.10;6.15;;;;;;;;;;5039325;28;20427;-83
2022/08/04 13:57:51;;;;;;;8.93;5.65;;;;;;;;;;5039433;28;21071;-85
2022/08/04 14:00:17;;;;;;;7.28;5.45;;;;;;;;;;5042504;28;20483;-82
2022/08/04 14:02:45;;;;;;;10.52;6.43;;;;;;;;;;5044714;28;20421;-83
2022/08/04 14:05:15;;;;;;;8.50;6.07;;;;;;;;;;5044613;28;20433;-83
2022/08/04 14:07:45;;;;;;;9.88;5.70;;;;;;;;;;5042485;28;20435;-82
2022/08/04 14:10:15;;;;;;;10.63;5.60;;;;;;;;;;5045327;28;20787;-81
2022/08/04 14:12:46;;;;;;;12.38;6.00;;;;;;;;;;5046834;28;20436;-83
2022/08/04 14:15:27;;;;;;;12.10;5.60;;;;;;;;;;5046097;28;20924;-82
2022/08/04 14:17:53;;;;;;;6.40;5.05;;;;;;;;;;5045083;28;20428;-84
2022/08/04 14:20:20;;;;;;;9.73;5.82;;;;;;;;;;5029745;28;20429;-83
2022/08/04 14:22:48;;;;;;;9.73;5.47;;;;;;;;;;5046677;28;20482;-83
2022/08/04 14:25:17;;;;;;;10.68;5.47;;;;;;;;;;5048109;28;20465;-82
2022/08/04 14:27:44;;;;;;;14.57;6.07;;;;;;;;;;5043007;28;20517;-84
2022/08/04 14:30:22;;;;;;;14.20;6.85;;;;;;;;;;5045540;28;20471;-82
2022/08/04 14:32:59;;;;;;;13.02;7.22;;;;;;;;;;5043561;28;20494;-85
2022/08/04 14:35:25;;;;;;;13.38;7.90;;;;;;;;;;5043198;28;20433;-85
2022/08/04 14:37:57;;;;;;;11.00;6.68;;;;;;;;;;5045332;28;20482;-86
2022/08/04 14:40:25;;;;;;;11.07;6.55;;;;;;;;;;5044938;28;20426;-83
2022/08/04 14:42:51;;;;;;;10.43;7.40;;;;;;;;;;5046467;28;20817;-84
2022/08/04 14:45:19;;;;;;;10.60;7.50;;;;;;;;;;5043880;28;20426;-84
2022/08/04 14:47:47;;;;;;;9.32;7.47;;;;;;;;;;5045067;28;20425;-86
2022/08/04 14:50:14;;;;;;;13.95;8.02;;;;;;;;;;5043547;28;20442;-84
2022/08/04 14:52:41;;;;;;;11.70;8.03;;;;;;;;;;5041884;28;20423;-85
2022/08/04 14:55:27;;;;;;;10.10;7.37;;;;;;;;;;5047882;28;20445;-85